Time;durP1;ratioP1;P1;durP2;ratioP2;P2;SDS_P1;SDS_P2;PMS_P1;PMS_P2;Temp;Humidity;BMP_temperature;BMP_pressure;BME280_temperature;BME280_humidity;BME280_pressure;Samples;Min_cycle;Max_cycle;Signal;HPM_P1;HPM_P2
2022/09/26 02:19:19;;;;;;;1.00;1.00;;;;;;;20.85;52.23;98821.48;1927350;72;28054;-69
2022/09/26 02:22:08;;;;;;;0.80;0.80;;;;;;;21.18;51.77;98818.97;1902027;73;28121;-68
2022/09/26 02:24:56;;;;;;;0.90;0.90;;;;;;;22.01;50.44;98817.86;1915183;73;27986;-68
2022/09/26 02:27:45;;;;;;;0.90;0.90;;;;;;;22.65;49.01;98808.80;1901850;75;28108;-70
2022/09/26 02:30:35;;;;;;;1.70;1.60;;;;;;;23.15;47.60;98799.89;1905594;73;28051;-70
2022/09/26 02:33:30;;;;;;;10.27;4.13;;;;;;;23.58;46.64;98799.61;1925659;73;28571;-69
2022/09/26 02:36:21;;;;;;;2.33;1.30;;;;;;;23.93;45.89;98800.81;1902822;75;28442;-70
2022/09/26 02:39:11;;;;;;;1.40;1.30;;;;;;;24.20;45.43;98801.36;1903018;73;28130;-70
2022/09/26 02:42:10;;;;;;;3.00;1.50;;;;;;;24.41;44.91;98803.98;1908209;73;28024;-71
2022/09/26 02:45:05;;;;;;;1.62;1.30;;;;;;;24.61;44.62;98804.14;1905048;73;28231;-72
2022/09/26 02:48:06;;;;;;;1.33;1.10;;;;;;;24.77;44.29;98801.52;1902043;73;28179;-72
2022/09/26 02:51:13;;;;;;;1.30;1.30;;;;;;;24.87;43.77;98799.67;1912325;73;28114;-72
2022/09/26 02:54:22;;;;;;;1.45;1.05;;;;;;;24.99;43.51;98792.59;1908162;73;28182;-70
2022/09/26 02:57:21;;;;;;;1.15;1.15;;;;;;;25.11;43.10;98794.00;1902200;73;28012;-70
2022/09/26 03:00:17;;;;;;;1.10;1.00;;;;;;;25.21;42.85;98786.36;1924407;73;28148;-70
2022/09/26 03:03:25;;;;;;;1.00;1.00;;;;;;;25.32;42.55;98796.31;1899796;73;28120;-70
2022/09/26 03:06:16;;;;;;;1.20;1.10;;;;;;;25.40;42.31;98789.74;1871789;73;28641;-68
2022/09/26 03:09:07;;;;;;;3.58;0.93;;;;;;;25.47;42.06;98796.39;1902016;75;28190;-77
2022/09/26 03:11:59;;;;;;;0.70;0.70;;;;;;;25.55;41.81;98788.17;1902079;75;28084;-76
2022/09/26 03:14:50;;;;;;;0.98;0.98;;;;;;;25.63;41.83;98789.83;1901921;75;28067;-79
2022/09/26 03:17:42;;;;;;;0.90;0.90;;;;;;;25.67;41.81;98781.30;1901270;75;28169;-79
2022/09/26 03:20:32;;;;;;;0.93;0.90;;;;;;;25.74;41.69;98774.98;1893543;74;28143;-78
2022/09/26 03:23:28;;;;;;;1.67;0.90;;;;;;;25.84;41.59;98775.56;1897635;74;28182;-78
2022/09/26 03:26:23;;;;;;;0.70;0.70;;;;;;;25.89;41.48;98777.78;1891699;74;27999;-79
2022/09/26 03:29:15;;;;;;;0.80;0.80;;;;;;;25.94;41.32;98784.67;1903528;73;27987;-78
2022/09/26 03:32:03;;;;;;;0.83;0.80;;;;;;;25.96;41.25;98781.09;1894569;74;28161;-78
2022/09/26 03:34:51;;;;;;;0.80;0.80;;;;;;;26.01;41.12;98780.27;1916615;73;28017;-78
2022/09/26 03:37:41;;;;;;;0.78;0.78;;;;;;;26.05;41.00;98779.44;1892394;74;28163;-78
2022/09/26 03:40:32;;;;;;;0.90;0.90;;;;;;;26.08;40.96;98773.94;1907963;73;28118;-78
2022/09/26 03:43:30;;;;;;;0.57;0.57;;;;;;;26.12;40.87;98772.86;1862297;73;28104;-79
2022/09/26 03:46:19;;;;;;;1.00;1.00;;;;;;;26.14;40.60;98769.30;1890121;74;27975;-79
2022/09/26 03:49:07;;;;;;;0.70;0.70;;;;;;;26.14;40.55;98764.60;1895401;74;28139;-79
2022/09/26 03:51:55;;;;;;;0.60;0.60;;;;;;;26.20;40.55;98759.39;1914191;74;28102;-80
2022/09/26 03:54:45;;;;;;;0.63;0.63;;;;;;;26.22;40.52;98758.56;1902909;73;28087;-80
2022/09/26 03:57:35;;;;;;;0.63;0.63;;;;;;;26.25;40.42;98757.19;1889459;75;28072;-78
2022/09/26 04:00:26;;;;;;;0.70;0.70;;;;;;;26.26;40.32;98753.31;1889245;74;28349;-77
2022/09/26 04:03:14;;;;;;;1.70;0.70;;;;;;;26.28;40.32;98756.64;1901597;75;28127;-80
2022/09/26 04:06:05;;;;;;;0.70;0.70;;;;;;;26.29;40.32;98751.39;1893531;74;28053;-79
2022/09/26 04:08:56;;;;;;;0.60;0.60;;;;;;;26.33;40.35;98753.86;1907516;73;27989;-79
2022/09/26 04:11:44;;;;;;;0.60;0.60;;;;;;;26.35;40.20;98743.41;1902920;73;28110;-78
2022/09/26 04:14:33;;;;;;;1.30;0.78;;;;;;;26.36;40.24;98745.05;1907859;73;28057;-78
2022/09/26 04:17:22;;;;;;;0.70;0.70;;;;;;;26.38;40.16;98737.33;1889393;75;28170;-78
2022/09/26 04:20:11;;;;;;;0.60;0.60;;;;;;;26.39;40.14;98734.32;1854315;77;28072;-78
2022/09/26 04:23:01;;;;;;;0.70;0.70;;;;;;;26.42;40.03;98732.94;1854181;75;28246;-79
2022/09/26 04:25:52;;;;;;;1.00;0.60;;;;;;;26.44;39.89;98727.98;1833921;76;28262;-78
2022/09/26 04:28:42;;;;;;;0.75;0.65;;;;;;;26.44;39.79;98727.41;1842503;77;28209;-79
2022/09/26 04:31:38;;;;;;;0.57;0.57;;;;;;;26.42;39.50;98724.10;1865484;75;28138;-75
2022/09/26 04:34:30;;;;;;;0.60;0.60;;;;;;;26.40;39.32;98724.11;1854205;75;28135;-78
2022/09/26 04:37:19;;;;;;;1.10;0.80;;;;;;;26.39;39.23;98720.55;1830362;77;28134;-77
2022/09/26 04:40:11;;;;;;;1.00;0.70;;;;;;;26.38;39.25;98715.30;1847817;77;28201;-80
2022/09/26 04:43:03;;;;;;;0.60;0.60;;;;;;;26.41;39.30;98712.00;1833796;77;28521;-79
2022/09/26 04:45:52;;;;;;;0.70;0.70;;;;;;;26.43;39.34;98717.51;1824872;77;28281;-78
2022/09/26 04:48:43;;;;;;;0.70;0.70;;;;;;;26.44;39.28;98705.95;1822573;78;28194;-78
2022/09/26 04:51:39;;;;;;;0.72;0.72;;;;;;;26.46;39.28;98713.37;1866718;75;28187;-78
2022/09/26 04:54:28;;;;;;;3.50;0.70;;;;;;;26.44;39.25;98710.88;1878137;75;28055;-78
2022/09/26 04:57:18;;;;;;;1.30;0.80;;;;;;;26.45;39.18;98703.45;1906916;74;28132;-78
2022/09/26 05:00:10;;;;;;;0.70;0.70;;;;;;;26.47;39.12;98705.36;1901453;73;28106;-78
2022/09/26 05:02:58;;;;;;;0.80;0.80;;;;;;;26.50;39.09;98707.02;1889291;75;28189;-78
2022/09/26 05:05:47;;;;;;;1.42;0.75;;;;;;;26.48;39.05;98698.22;1933020;73;28058;-78
2022/09/26 05:08:41;;;;;;;1.90;0.60;;;;;;;26.51;39.02;98694.08;1913576;73;28084;-78
2022/09/26 05:11:31;;;;;;;0.60;0.60;;;;;;;26.55;38.93;98693.79;1889079;75;28759;-77
2022/09/26 05:14:20;;;;;;;0.60;0.60;;;;;;;26.53;38.85;98684.98;1895128;74;28133;-78
2022/09/26 05:17:10;;;;;;;0.60;0.60;;;;;;;26.54;38.90;98688.83;1903518;73;28006;-78
2022/09/26 05:19:59;;;;;;;0.60;0.60;;;;;;;26.57;38.88;98691.58;1889683;75;31187;-78
2022/09/26 05:22:50;;;;;;;0.72;0.72;;;;;;;26.54;38.83;98686.62;1901781;75;28143;-79
2022/09/26 05:29:00;;;;;;;0.75;0.65;;;;;;;26.54;38.78;98691.58;1894369;74;28029;-78
2022/09/26 05:31:47;;;;;;;0.50;0.50;;;;;;;26.52;38.80;98688.83;1904955;73;28776;-79
2022/09/26 05:34:36;;;;;;;0.60;0.50;;;;;;;26.52;38.84;98695.17;1889506;75;28156;-79
2022/09/26 05:37:25;;;;;;;1.12;0.85;;;;;;;26.50;38.85;98696.01;1921387;73;28110;-80
2022/09/26 05:43:23;;;;;;;0.50;0.50;;;;;;;26.52;38.75;98694.34;1901663;73;28113;-79
2022/09/26 05:46:13;;;;;;;0.82;0.60;;;;;;;26.47;38.80;98688.30;1898468;75;28541;-79
2022/09/26 05:49:05;;;;;;;0.60;0.60;;;;;;;26.51;38.77;98683.87;1901398;75;28106;-79
2022/09/26 05:51:54;;;;;;;0.60;0.60;;;;;;;26.55;38.66;98678.64;1889212;75;28142;-79
2022/09/26 05:54:43;;;;;;;0.70;0.53;;;;;;;26.52;38.63;98681.40;1916391;73;28467;-78
2022/09/26 05:57:39;;;;;;;0.50;0.50;;;;;;;26.56;38.55;98677.52;1846740;75;28140;-78
2022/09/26 06:00:30;;;;;;;1.30;0.55;;;;;;;26.56;38.54;98674.77;1903428;74;28029;-78
2022/09/26 06:03:18;;;;;;;0.50;0.50;;;;;;;26.57;38.57;98673.67;1868710;75;28297;-78
2022/09/26 06:06:17;;;;;;;0.70;0.70;;;;;;;26.61;38.48;98671.45;1845423;75;28096;-79
2022/09/26 06:09:07;;;;;;;0.70;0.70;;;;;;;26.60;38.45;98668.98;1882479;75;28140;-78
2022/09/26 06:12:11;;;;;;;0.50;0.50;;;;;;;26.60;38.44;98671.20;1896073;75;28191;-79
2022/09/26 06:15:00;;;;;;;1.70;0.70;;;;;;;26.53;38.51;98672.05;1884782;75;28180;-78
2022/09/26 06:17:48;;;;;;;0.50;0.50;;;;;;;26.55;38.50;98673.13;1858693;75;28708;-79
2022/09/26 06:20:36;;;;;;;0.50;0.50;;;;;;;26.56;38.48;98677.52;1876699;75;28162;-78
2022/09/26 06:23:25;;;;;;;0.62;0.62;;;;;;;26.56;38.44;98670.63;1857006;77;28319;-78
2022/09/26 06:26:16;;;;;;;0.60;0.60;;;;;;;26.60;38.39;98670.37;1868931;74;28176;-78
